createdAt,value
2019-02-28T00:01:43.174Z,42.70
2019-02-28T00:06:49.324Z,42.19
2019-02-28T00:11:56.984Z,44.31
2019-02-28T00:17:06.230Z,52.82
2019-02-28T00:22:14.620Z,53.48
2019-02-28T00:27:21.933Z,54.41
2019-02-28T00:32:26.328Z,47.42
2019-02-28T00:37:34.063Z,54.68
2019-02-28T00:42:41.748Z,46.57
2019-02-28T00:47:49.452Z,44.71
2019-02-28T00:52:57.092Z,44.12
2019-02-28T00:58:04.760Z,54.97
2019-02-28T01:03:12.418Z,45.17
2019-02-28T01:08:22.176Z,53.65
2019-02-28T01:13:28.162Z,44.86
2019-02-28T01:18:34.775Z,51.88
2019-02-28T01:23:41.635Z,51.71
2019-02-28T01:28:49.247Z,42.83
2019-02-28T01:33:58.781Z,51.21
2019-02-28T01:39:04.333Z,44.94
2019-02-28T01:44:12.033Z,45.82
2019-02-28T01:49:19.664Z,46.28
2019-02-28T01:54:27.604Z,46.68
2019-02-28T01:59:34.544Z,45.32
2019-02-28T02:04:43.249Z,45.65
2019-02-28T02:09:49.373Z,45.94
2019-02-28T02:14:57.069Z,45.29
2019-02-28T02:20:04.752Z,55.07
2019-02-28T02:25:12.407Z,47.45
2019-02-28T02:30:20.089Z,47.88
2019-02-28T02:35:27.815Z,49.93
2019-02-28T02:40:35.477Z,68.06
2019-02-28T02:45:43.767Z,55.22
2019-02-28T02:50:50.360Z,52.77
2019-02-28T02:56:03.550Z,71.96
2019-02-28T03:01:05.332Z,74.93
2019-02-28T03:06:14.341Z,57.93
2019-02-28T03:11:24.761Z,58.76
2019-02-28T03:16:27.461Z,59.21
2019-02-28T03:21:35.144Z,64.32
2019-02-28T03:26:43.442Z,63.88
2019-02-28T03:31:56.688Z,66.45
2019-02-28T03:36:57.662Z,68.09
2019-02-28T03:42:04.537Z,69.18
2019-02-28T03:47:12.371Z,88.78
2019-02-28T03:52:20.084Z,76.61
2019-02-28T03:57:29.483Z,77.78
2019-02-28T04:02:35.061Z,62.40
2019-02-28T04:07:42.760Z,59.42
2019-02-28T04:12:50.450Z,58.33
2019-02-28T04:17:58.173Z,62.80
2019-02-28T04:23:05.801Z,68.01
2019-02-28T04:28:17.557Z,73.28
2019-02-28T04:33:20.887Z,77.92
2019-02-28T04:38:28.773Z,76.75
2019-02-28T04:43:36.401Z,79.53
2019-02-28T04:48:45.705Z,80.43
2019-02-28T04:53:52.998Z,77.61
2019-02-28T04:58:59.498Z,78.42
2019-02-28T05:04:05.798Z,79.73
2019-02-28T05:09:14.497Z,74.14
2019-02-28T05:14:23.714Z,67.43
2019-02-28T05:19:28.064Z,68.59
2019-02-28T05:24:35.764Z,72.28
2019-02-28T05:29:44.714Z,71.01
2019-02-28T05:34:51.778Z,68.88
2019-02-28T05:39:58.006Z,68.93
2019-02-28T05:45:05.705Z,62.63
2019-02-28T05:50:16.760Z,65.99
2019-02-28T05:55:24.435Z,65.09
2019-02-28T06:00:27.937Z,64.76
2019-02-28T06:05:35.636Z,63.72
2019-02-28T06:10:44.297Z,63.27
2019-02-28T06:15:51.976Z,65.85
2019-02-28T06:20:59.709Z,66.57
2019-02-28T06:26:07.627Z,68.08
2019-02-28T06:31:15.351Z,68.12
2019-02-28T06:36:25.694Z,63.69
2019-02-28T06:41:30.381Z,66.29
2019-02-28T06:46:39.838Z,69.28
2019-02-28T06:51:45.257Z,67.07
2019-02-28T06:56:54.083Z,66.97
2019-02-28T07:02:00.128Z,69.48
2019-02-28T07:07:10.136Z,71.26
2019-02-28T07:12:15.077Z,74.65
2019-02-28T07:17:22.792Z,86.92
2019-02-28T07:22:30.516Z,82.00
2019-02-28T07:27:38.232Z,64.32
2019-02-28T07:32:45.976Z,64.39
2019-02-28T07:37:54.472Z,63.81
2019-02-28T07:43:00.880Z,64.20
2019-02-28T07:48:08.529Z,65.19
